Time;durP1;ratioP1;P1;durP2;ratioP2;P2;SDS_P1;SDS_P2;PMS_P1;PMS_P2;Temp;Humidity;BMP_temperature;BMP_pressure;BME280_temperature;BME280_humidity;BME280_pressure;Samples;Min_cycle;Max_cycle;Signal;HPM_P1;HPM_P2
2021/08/11 00:00:45;;;;;;;2.88;2.22;;;;;20.30;101680.00;;;;5069161;28;20203;-75
2021/08/11 00:03:12;;;;;;;3.10;2.00;;;;;20.30;101682.00;;;;5068961;28;20209;-75
2021/08/11 00:05:41;;;;;;;3.13;2.28;;;;;20.30;101675.00;;;;5068879;28;20199;-74
2021/08/11 00:08:08;;;;;;;2.35;1.85;;;;;20.20;101674.00;;;;5067769;28;20206;-75
2021/08/11 00:10:35;;;;;;;3.40;1.98;;;;;20.20;101671.00;;;;5068994;28;20226;-75
2021/08/11 00:13:02;;;;;;;2.33;1.60;;;;;20.20;101676.00;;;;5068404;28;20203;-75
2021/08/11 00:15:31;;;;;;;2.47;1.83;;;;;20.20;101686.00;;;;5068417;28;20536;-75
2021/08/11 00:17:58;;;;;;;2.70;2.03;;;;;20.20;101681.00;;;;5068767;28;20206;-75
2021/08/11 00:20:25;;;;;;;4.53;2.70;;;;;20.20;101675.00;;;;5068636;28;20202;-75
2021/08/11 00:22:53;;;;;;;4.43;2.28;;;;;20.20;101682.00;;;;5068599;28;20202;-75
2021/08/11 00:25:20;;;;;;;3.85;2.20;;;;;20.20;101678.00;;;;5067601;28;20206;-75
2021/08/11 00:27:48;;;;;;;3.10;2.30;;;;;20.20;101679.00;;;;5068265;28;20206;-75
2021/08/11 00:30:15;;;;;;;3.67;2.00;;;;;20.10;101679.00;;;;5068854;28;20237;-74
2021/08/11 00:32:44;;;;;;;4.47;2.28;;;;;20.10;101682.00;;;;5068672;28;20203;-75
2021/08/11 00:35:11;;;;;;;2.75;2.28;;;;;20.10;101670.00;;;;5049339;28;20235;-75
2021/08/11 00:37:39;;;;;;;2.92;2.35;;;;;20.10;101678.00;;;;5048677;28;20207;-75
2021/08/11 00:40:07;;;;;;;2.55;2.00;;;;;20.10;101667.00;;;;5048556;28;20199;-75
2021/08/11 00:42:35;;;;;;;4.93;2.35;;;;;20.00;101670.00;;;;5048681;28;20253;-75
2021/08/11 00:45:03;;;;;;;4.03;2.95;;;;;20.10;101666.00;;;;5048222;28;20215;-75
2021/08/11 00:47:32;;;;;;;2.65;2.13;;;;;20.00;101668.00;;;;5048711;28;20200;-75
2021/08/11 00:50:01;;;;;;;3.45;2.50;;;;;20.00;101670.00;;;;5048095;28;20318;-74
2021/08/11 00:52:28;;;;;;;2.33;2.05;;;;;20.00;101675.00;;;;5048410;28;20208;-75
2021/08/11 00:54:57;;;;;;;2.63;2.15;;;;;20.00;101672.00;;;;5048071;28;20199;-75
2021/08/11 00:57:27;;;;;;;3.38;2.40;;;;;19.90;101673.00;;;;5051698;28;20196;-75
2021/08/11 00:59:56;;;;;;;4.10;2.63;;;;;19.90;101676.00;;;;5052267;28;20215;-75
2021/08/11 01:02:23;;;;;;;2.40;2.15;;;;;19.90;101669.00;;;;5052297;28;20223;-75
2021/08/11 01:04:52;;;;;;;3.03;2.50;;;;;19.90;101672.00;;;;5051231;28;20231;-75
2021/08/11 01:07:22;;;;;;;3.25;2.45;;;;;19.90;101668.00;;;;5051789;28;20204;-75
2021/08/11 01:09:51;;;;;;;3.13;2.60;;;;;19.90;101677.00;;;;5051104;28;20228;-75
2021/08/11 01:12:20;;;;;;;3.80;2.78;;;;;19.90;101673.00;;;;5051583;28;20212;-74
2021/08/11 01:14:48;;;;;;;6.55;3.30;;;;;19.80;101671.00;;;;5051915;28;20200;-74
2021/08/11 01:17:15;;;;;;;4.40;2.85;;;;;19.80;101676.00;;;;5052100;28;20219;-75
2021/08/11 01:19:42;;;;;;;3.25;2.13;;;;;19.80;101670.00;;;;5051282;28;20214;-75
2021/08/11 01:22:12;;;;;;;4.40;2.75;;;;;19.80;101672.00;;;;5051223;28;20203;-75
2021/08/11 01:24:49;;;;;;;4.10;2.35;;;;;19.70;101673.00;;;;5051592;28;20206;-75
2021/08/11 01:27:36;;;;;;;4.68;2.78;;;;;19.70;101675.00;;;;5050886;28;20207;-75
2021/08/11 01:30:22;;;;;;;3.35;2.40;;;;;19.60;101675.00;;;;5050999;28;20229;-75
2021/08/11 01:33:22;;;;;;;3.05;2.22;;;;;19.70;101677.00;;;;5052007;28;20200;-75
2021/08/11 01:35:59;;;;;;;3.67;2.53;;;;;19.70;101672.00;;;;5051091;28;20273;-75
2021/08/11 01:38:30;;;;;;;4.22;2.35;;;;;19.70;101678.00;;;;5051114;28;20209;-75
2021/08/11 01:41:02;;;;;;;3.58;2.45;;;;;19.70;101676.00;;;;5051159;28;20200;-75
2021/08/11 01:43:37;;;;;;;3.13;2.25;;;;;19.70;101679.00;;;;5051493;28;20203;-75
2021/08/11 01:46:07;;;;;;;4.70;2.28;;;;;19.70;101675.00;;;;5050831;28;20210;-75
2021/08/11 01:48:38;;;;;;;3.10;2.25;;;;;19.60;101667.00;;;;5050820;28;20215;-75
2021/08/11 01:51:08;;;;;;;3.92;2.78;;;;;19.70;101672.00;;;;5050961;28;20235;-75
2021/08/11 01:53:35;;;;;;;3.40;2.42;;;;;19.70;101671.00;;;;5051160;28;20208;-74
2021/08/11 01:56:03;;;;;;;4.00;2.97;;;;;19.70;101672.00;;;;5050548;28;20208;-75
2021/08/11 01:58:32;;;;;;;3.78;2.63;;;;;19.60;101673.00;;;;5050977;28;20199;-74
2021/08/11 02:01:01;;;;;;;3.33;2.50;;;;;19.60;101668.00;;;;5050462;28;20261;-76
2021/08/11 02:03:30;;;;;;;3.88;2.38;;;;;19.60;101672.00;;;;5050629;28;20207;-75
2021/08/11 02:05:58;;;;;;;3.42;2.40;;;;;19.60;101666.00;;;;5049267;28;20207;-75
2021/08/11 02:08:27;;;;;;;4.53;2.92;;;;;19.60;101672.00;;;;5069517;28;20229;-75
2021/08/11 02:10:57;;;;;;;3.97;2.95;;;;;19.60;101674.00;;;;5068770;28;20245;-75
2021/08/11 02:13:26;;;;;;;4.55;2.60;;;;;19.60;101670.00;;;;5069851;28;20199;-75
2021/08/11 02:15:53;;;;;;;3.50;2.50;;;;;19.60;101659.00;;;;5069533;28;20195;-74
2021/08/11 02:18:21;;;;;;;3.17;2.47;;;;;19.60;101657.00;;;;5070194;28;20203;-74
2021/08/11 02:20:50;;;;;;;5.78;2.95;;;;;19.60;101667.00;;;;5069959;28;20203;-75
2021/08/11 02:23:17;;;;;;;2.97;2.70;;;;;19.60;101665.00;;;;5068433;28;20226;-74
2021/08/11 02:25:50;;;;;;;4.38;3.17;;;;;19.50;101663.00;;;;5069838;28;21082;-75
2021/08/11 02:28:24;;;;;;;3.85;2.80;;;;;19.50;101666.00;;;;5069602;28;20293;-75
2021/08/11 02:30:59;;;;;;;3.17;2.67;;;;;19.60;101667.00;;;;5069522;28;20227;-75
2021/08/11 02:33:31;;;;;;;6.22;3.30;;;;;19.50;101664.00;;;;5057790;28;20203;-74
2021/08/11 02:36:02;;;;;;;4.57;3.05;;;;;19.50;101661.00;;;;5048677;28;20237;-75
2021/08/11 02:38:34;;;;;;;3.70;2.97;;;;;19.50;101661.00;;;;5053355;28;20204;-75
2021/08/11 02:41:10;;;;;;;3.90;3.40;;;;;19.50;101666.00;;;;5064585;28;20207;-75
2021/08/11 02:43:42;;;;;;;4.38;2.85;;;;;19.50;101668.00;;;;5069611;28;20194;-75
2021/08/11 02:46:12;;;;;;;4.65;3.13;;;;;19.50;101674.00;;;;5069288;28;20199;-75
2021/08/11 02:48:40;;;;;;;4.47;3.40;;;;;19.50;101665.00;;;;5069629;28;20211;-76
2021/08/11 02:51:10;;;;;;;4.85;3.70;;;;;19.50;101667.00;;;;5069226;28;20233;-76
2021/08/11 02:53:41;;;;;;;4.00;2.95;;;;;19.50;101670.00;;;;5069772;28;20252;-75
2021/08/11 02:56:13;;;;;;;4.28;3.13;;;;;19.50;101671.00;;;;5069040;28;20202;-76
2021/08/11 02:58:40;;;;;;;6.13;3.42;;;;;19.50;101671.00;;;;5068980;28;20218;-76
2021/08/11 03:01:08;;;;;;;6.28;3.35;;;;;19.50;101672.00;;;;5069496;28;20217;-76
2021/08/11 03:03:35;;;;;;;4.03;2.53;;;;;19.50;101668.00;;;;5070220;28;20206;-76
2021/08/11 03:06:03;;;;;;;4.35;3.47;;;;;19.50;101663.00;;;;5068614;28;20207;-76
2021/08/11 03:08:30;;;;;;;4.43;2.70;;;;;19.50;101663.00;;;;5069299;28;20681;-76
2021/08/11 03:10:58;;;;;;;4.68;3.15;;;;;19.50;101665.00;;;;5069175;28;20222;-76
2021/08/11 03:13:27;;;;;;;4.10;2.90;;;;;19.40;101664.00;;;;5069337;28;20213;-76
2021/08/11 03:15:55;;;;;;;4.28;3.08;;;;;19.50;101664.00;;;;5067973;28;20788;-76
2021/08/11 03:18:22;;;;;;;5.50;2.80;;;;;19.40;101670.00;;;;5068811;28;20202;-76
2021/08/11 03:20:50;;;;;;;4.15;2.78;;;;;19.40;101665.00;;;;5069044;28;20623;-76
2021/08/11 03:23:17;;;;;;;4.30;3.30;;;;;19.40;101662.00;;;;5069248;28;20676;-76
2021/08/11 03:25:45;;;;;;;3.88;2.97;;;;;19.40;101660.00;;;;5069014;28;20198;-76
2021/08/11 03:28:12;;;;;;;4.47;3.47;;;;;19.40;101662.00;;;;5068762;28;20203;-76
2021/08/11 03:30:42;;;;;;;4.97;3.25;;;;;19.40;101650.00;;;;5069104;28;20226;-76
2021/08/11 03:33:10;;;;;;;5.75;3.65;;;;;19.40;101662.00;;;;5050976;28;20203;-76
2021/08/11 03:35:37;;;;;;;5.72;3.28;;;;;19.40;101660.00;;;;5049019;28;20704;-76
2021/08/11 03:38:04;;;;;;;4.38;3.58;;;;;19.40;101663.00;;;;5048913;28;20199;-76
2021/08/11 03:40:33;;;;;;;4.90;3.78;;;;;19.40;101658.00;;;;5048744;28;20288;-76
2021/08/11 03:43:00;;;;;;;9.77;4.00;;;;;19.40;101654.00;;;;5049182;28;20206;-76
2021/08/11 03:45:27;;;;;;;5.00;3.67;;;;;19.40;101658.00;;;;5049385;28;20200;-76
2021/08/11 03:47:56;;;;;;;4.28;3.03;;;;;19.40;101658.00;;;;5048984;28;20200;-76
2021/08/11 03:50:25;;;;;;;4.40;3.50;;;;;19.40;101655.00;;;;5067197;28;20760;-76
2021/08/11 03:52:53;;;;;;;5.22;3.75;;;;;19.40;101655.00;;;;5068450;28;20187;-76
2021/08/11 03:55:20;;;;;;;4.25;3.42;;;;;19.40;101658.00;;;;5068572;28;20689;-76
2021/08/11 03:57:47;;;;;;;4.82;3.70;;;;;19.30;101662.00;;;;5068580;28;20199;-76
2021/08/11 04:00:15;;;;;;;6.45;3.50;;;;;19.30;101667.00;;;;5068409;28;20202;-76
2021/08/11 04:02:42;;;;;;;4.63;3.58;;;;;19.30;101659.00;;;;5068969;28;20277;-76
2021/08/11 04:05:12;;;;;;;5.28;3.97;;;;;19.30;101661.00;;;;5067522;28;20225;-76
2021/08/11 04:07:39;;;;;;;4.97;3.67;;;;;19.30;101664.00;;;;5068622;28;20199;-76
2021/08/11 04:10:08;;;;;;;4.15;3.75;;;;;19.30;101667.00;;;;5068589;28;20226;-76
2021/08/11 04:12:35;;;;;;;6.93;3.80;;;;;19.30;101671.00;;;;5068181;28;20669;-76
2021/08/11 04:15:03;;;;;;;4.75;3.95;;;;;19.30;101667.00;;;;5068320;28;20230;-76
2021/08/11 04:17:30;;;;;;;4.80;3.92;;;;;19.30;101670.00;;;;5068961;28;20244;-76
2021/08/11 04:19:58;;;;;;;4.53;3.25;;;;;19.30;101669.00;;;;5068479;28;20661;-76
2021/08/11 04:22:26;;;;;;;5.75;3.75;;;;;19.30;101670.00;;;;5067799;28;20214;-76
2021/08/11 04:24:53;;;;;;;5.40;3.67;;;;;19.30;101676.00;;;;5068725;28;20218;-76
2021/08/11 04:27:21;;;;;;;6.35;3.70;;;;;19.30;101673.00;;;;5067690;28;20198;-75
2021/08/11 04:29:48;;;;;;;5.32;4.07;;;;;19.30;101678.00;;;;5069898;28;20580;-76
2021/08/11 04:32:15;;;;;;;4.95;4.00;;;;;19.30;101673.00;;;;5061958;28;20204;-76
2021/08/11 04:34:42;;;;;;;5.30;3.90;;;;;19.30;101675.00;;;;5051595;28;20231;-76
2021/08/11 04:37:10;;;;;;;8.90;4.32;;;;;19.30;101677.00;;;;5051830;28;20653;-75
2021/08/11 04:39:38;;;;;;;7.07;4.47;;;;;19.30;101682.00;;;;5052097;28;20210;-76
2021/08/11 04:42:05;;;;;;;4.15;3.55;;;;;19.30;101682.00;;;;5050793;28;20208;-76
2021/08/11 04:44:33;;;;;;;4.00;3.60;;;;;19.40;101681.00;;;;5051824;28;20558;-76
2021/08/11 04:47:00;;;;;;;4.90;4.40;;;;;19.40;101674.00;;;;5051725;28;20204;-76
2021/08/11 04:49:27;;;;;;;5.68;4.32;;;;;19.40;101675.00;;;;5051734;28;20210;-76
2021/08/11 04:51:54;;;;;;;4.55;3.33;;;;;19.40;101676.00;;;;5051225;28;20227;-76
2021/08/11 04:54:22;;;;;;;5.45;4.07;;;;;19.40;101681.00;;;;5051050;28;21009;-76
2021/08/11 04:56:50;;;;;;;4.68;3.63;;;;;19.40;101682.00;;;;5051666;28;20207;-76
2021/08/11 04:59:17;;;;;;;4.85;4.35;;;;;19.40;101681.00;;;;5052090;28;20204;-76
2021/08/11 05:01:44;;;;;;;5.18;4.07;;;;;19.40;101681.00;;;;5051317;28;20211;-76
2021/08/11 05:04:12;;;;;;;6.53;3.70;;;;;19.50;101680.00;;;;5051937;28;20589;-76
2021/08/11 05:06:39;;;;;;;4.60;4.03;;;;;19.50;101685.00;;;;5051899;28;20203;-76
2021/08/11 05:09:07;;;;;;;5.13;3.88;;;;;19.50;101697.00;;;;5051909;28;20217;-76
2021/08/11 05:11:34;;;;;;;5.20;4.13;;;;;19.50;101696.00;;;;5051560;28;20234;-76
2021/08/11 05:14:02;;;;;;;5.10;4.13;;;;;19.50;101695.00;;;;5052031;28;20223;-75
2021/08/11 05:16:30;;;;;;;4.88;4.10;;;;;19.60;101698.00;;;;5051433;28;20210;-76
2021/08/11 05:18:57;;;;;;;5.28;4.57;;;;;19.60;101703.00;;;;5051354;28;20204;-76
2021/08/11 05:21:24;;;;;;;5.38;4.32;;;;;19.70;101702.00;;;;5051785;28;20199;-76
2021/08/11 05:23:52;;;;;;;6.50;5.30;;;;;19.70;101702.00;;;;5051274;28;20207;-76
2021/08/11 05:26:19;;;;;;;6.40;4.85;;;;;19.80;101704.00;;;;5050684;28;20200;-76
2021/08/11 05:28:46;;;;;;;6.13;4.18;;;;;19.80;101705.00;;;;5051372;28;20199;-76
2021/08/11 05:31:15;;;;;;;7.18;5.35;;;;;19.90;101702.00;;;;5051361;28;20608;-76
2021/08/11 05:33:42;;;;;;;5.40;4.50;;;;;19.90;101709.00;;;;5051397;28;20211;-76
2021/08/11 05:36:10;;;;;;;8.02;5.60;;;;;20.00;101716.00;;;;5049977;28;20305;-76
2021/08/11 05:38:38;;;;;;;6.85;5.43;;;;;20.00;101722.00;;;;5055262;28;20191;-76
2021/08/11 05:41:06;;;;;;;6.40;4.55;;;;;20.10;101719.00;;;;5061014;28;20195;-76
2021/08/11 05:43:33;;;;;;;5.93;5.32;;;;;20.10;101722.00;;;;5071359;28;20747;-76
2021/08/11 05:46:01;;;;;;;6.35;4.85;;;;;20.20;101713.00;;;;5071000;28;20567;-76
2021/08/11 05:48:30;;;;;;;6.82;5.05;;;;;20.30;101714.00;;;;5059285;28;20204;-76
2021/08/11 05:50:57;;;;;;;7.57;4.80;;;;;20.30;101716.00;;;;5050735;28;20223;-76
2021/08/11 05:53:24;;;;;;;8.57;5.15;;;;;20.40;101715.00;;;;5050799;28;20215;-76
2021/08/11 05:55:52;;;;;;;6.10;4.90;;;;;20.50;101716.00;;;;5050844;28;20666;-75
2021/08/11 05:58:19;;;;;;;6.28;4.78;;;;;20.60;101720.00;;;;5050277;28;20218;-76
2021/08/11 06:00:46;;;;;;;8.38;6.07;;;;;20.70;101726.00;;;;5050897;28;20589;-75
2021/08/11 06:03:13;;;;;;;5.63;5.03;;;;;20.80;101724.00;;;;5050574;28;20196;-76
2021/08/11 06:05:42;;;;;;;6.70;5.30;;;;;20.90;101732.00;;;;5051403;28;20207;-76
2021/08/11 06:08:10;;;;;;;8.52;5.25;;;;;21.00;101731.00;;;;5050406;28;20204;-76
2021/08/11 06:10:38;;;;;;;7.40;5.80;;;;;21.10;101737.00;;;;5050454;28;20231;-76
2021/08/11 06:13:06;;;;;;;8.15;5.97;;;;;21.20;101736.00;;;;5050176;28;20210;-76
2021/08/11 06:15:33;;;;;;;7.78;5.45;;;;;21.30;101739.00;;;;5051139;28;20184;-76
2021/08/11 06:18:00;;;;;;;9.48;7.10;;;;;21.40;101740.00;;;;5050361;28;20207;-76
2021/08/11 06:20:27;;;;;;;8.07;6.43;;;;;21.40;101746.00;;;;5050516;28;20207;-76
2021/08/11 06:22:56;;;;;;;7.30;6.13;;;;;21.40;101748.00;;;;5050196;28;20215;-76
2021/08/11 06:25:23;;;;;;;8.73;6.07;;;;;21.50;101752.00;;;;5049920;28;20203;-76
2021/08/11 06:27:50;;;;;;;7.43;5.93;;;;;21.60;101761.00;;;;5049923;28;20693;-76
2021/08/11 06:30:18;;;;;;;6.93;5.78;;;;;21.70;101760.00;;;;5050247;28;20199;-76
2021/08/11 06:32:45;;;;;;;9.27;6.72;;;;;21.70;101767.00;;;;5049964;28;20585;-76
2021/08/11 06:35:13;;;;;;;7.30;5.97;;;;;21.80;101773.00;;;;5049498;28;20234;-76
2021/08/11 06:37:45;;;;;;;6.57;5.15;;;;;21.90;101768.00;;;;5049730;28;20212;-76
2021/08/11 06:40:15;;;;;;;6.57;5.63;;;;;22.00;101776.00;;;;5066999;28;20271;-77
2021/08/11 06:42:43;;;;;;;7.32;5.93;;;;;22.10;101767.00;;;;5069370;28;20203;-74
2021/08/11 06:45:11;;;;;;;9.05;6.50;;;;;22.20;101765.00;;;;5068766;28;20236;-74
2021/08/11 06:47:38;;;;;;;7.55;5.68;;;;;22.20;101765.00;;;;5069162;28;20203;-73
2021/08/11 06:50:08;;;;;;;8.82;5.85;;;;;22.30;101766.00;;;;5068474;28;20203;-73
2021/08/11 06:52:35;;;;;;;8.27;6.55;;;;;22.40;101760.00;;;;5068633;28;20218;-74
2021/08/11 06:55:04;;;;;;;7.80;5.82;;;;;22.50;101770.00;;;;5067724;28;20203;-74
2021/08/11 06:57:32;;;;;;;7.15;5.75;;;;;22.60;101772.00;;;;5049019;28;20615;-74
2021/08/11 06:59:59;;;;;;;8.80;6.40;;;;;22.70;101772.00;;;;5049268;28;20216;-74
2021/08/11 07:02:27;;;;;;;9.52;5.20;;;;;22.80;101776.00;;;;5048984;28;20617;-75
2021/08/11 07:04:54;;;;;;;7.25;5.55;;;;;22.90;101775.00;;;;5048407;28;20204;-74
2021/08/11 07:07:21;;;;;;;8.10;5.47;;;;;23.00;101773.00;;;;5048155;28;20203;-75
2021/08/11 07:09:48;;;;;;;7.60;6.63;;;;;23.10;101772.00;;;;5048850;28;20207;-74
2021/08/11 07:12:16;;;;;;;6.57;5.40;;;;;23.10;101768.00;;;;5049241;28;20223;-74
2021/08/11 07:14:45;;;;;;;6.40;4.93;;;;;23.20;101762.00;;;;5048637;28;20199;-74
2021/08/11 07:17:12;;;;;;;10.27;5.82;;;;;23.30;101767.00;;;;5048453;28;20286;-74
2021/08/11 07:19:40;;;;;;;6.45;4.95;;;;;23.40;101773.00;;;;5048487;28;20665;-74
2021/08/11 07:22:08;;;;;;;7.97;4.65;;;;;23.50;101781.00;;;;5048397;28;20313;-74
2021/08/11 07:24:35;;;;;;;6.13;4.82;;;;;23.60;101785.00;;;;5048564;28;20595;-74
2021/08/11 07:27:03;;;;;;;8.60;5.50;;;;;23.70;101788.00;;;;5048106;28;20199;-74
2021/08/11 07:29:31;;;;;;;6.80;4.03;;;;;23.80;101795.00;;;;5048846;28;20202;-75
2021/08/11 07:31:59;;;;;;;7.30;5.35;;;;;23.90;101792.00;;;;5048026;28;20260;-74
2021/08/11 07:34:27;;;;;;;8.73;5.20;;;;;24.00;101784.00;;;;5048186;28;20227;-74
2021/08/11 07:36:54;;;;;;;7.07;5.00;;;;;24.10;101789.00;;;;5048267;28;20203;-74
2021/08/11 07:39:21;;;;;;;9.30;6.05;;;;;24.10;101784.00;;;;5047944;28;20204;-74
2021/08/11 07:41:48;;;;;;;6.68;4.60;;;;;24.20;101792.00;;;;5047990;28;20206;-74
2021/08/11 07:44:15;;;;;;;8.88;5.18;;;;;24.30;101790.00;;;;5049003;28;20203;-75
2021/08/11 07:46:43;;;;;;;8.80;5.57;;;;;24.40;101785.00;;;;5053341;28;20203;-75
2021/08/11 07:49:12;;;;;;;8.65;5.57;;;;;24.40;101783.00;;;;5068149;28;20210;-75
2021/08/11 07:51:39;;;;;;;7.25;4.93;;;;;24.50;101778.00;;;;5068057;28;20863;-75
2021/08/11 07:54:06;;;;;;;5.55;4.05;;;;;24.60;101782.00;;;;5067822;28;20215;-74
2021/08/11 07:56:33;;;;;;;5.55;4.00;;;;;24.70;101781.00;;;;5067955;28;20225;-75
2021/08/11 07:59:00;;;;;;;7.22;4.22;;;;;24.70;101780.00;;;;5067943;28;20206;-75
2021/08/11 08:01:28;;;;;;;7.72;4.72;;;;;24.70;101783.00;;;;5067832;28;20699;-75
2021/08/11 08:03:55;;;;;;;6.20;4.20;;;;;24.80;101782.00;;;;5067207;28;20692;-75
2021/08/11 08:06:23;;;;;;;8.63;3.88;;;;;24.90;101780.00;;;;5071810;28;20202;-75
2021/08/11 08:08:50;;;;;;;7.95;3.92;;;;;25.00;101786.00;;;;5071698;28;21016;-74
2021/08/11 08:11:18;;;;;;;4.38;3.33;;;;;25.10;101779.00;;;;5071961;28;20223;-76
2021/08/11 08:13:46;;;;;;;6.00;4.55;;;;;25.30;101780.00;;;;5072878;28;20202;-75
2021/08/11 08:16:14;;;;;;;4.93;3.58;;;;;25.40;101787.00;;;;5071392;28;20202;-75
2021/08/11 08:18:42;;;;;;;6.88;4.13;;;;;25.50;101774.00;;;;5072533;28;20238;-75
2021/08/11 08:21:09;;;;;;;4.97;3.92;;;;;25.60;101780.00;;;;5070998;28;20735;-75
2021/08/11 08:23:38;;;;;;;5.95;3.90;;;;;25.70;101781.00;;;;5071727;28;20198;-75
2021/08/11 08:26:06;;;;;;;4.47;3.33;;;;;25.70;101785.00;;;;5071469;28;20207;-75
2021/08/11 08:28:33;;;;;;;5.93;3.90;;;;;25.80;101786.00;;;;5071827;28;20236;-75
2021/08/11 08:31:00;;;;;;;4.15;3.13;;;;;25.90;101782.00;;;;5055617;28;20199;-75
2021/08/11 08:33:28;;;;;;;5.07;3.00;;;;;26.00;101786.00;;;;5051956;28;20598;-74
2021/08/11 08:35:55;;;;;;;4.32;3.75;;;;;26.00;101790.00;;;;5050301;28;20224;-76
2021/08/11 08:38:22;;;;;;;5.78;3.42;;;;;26.10;101797.00;;;;5053883;28;20208;-75
2021/08/11 08:40:53;;;;;;;4.88;3.40;;;;;26.10;101786.00;;;;5062981;28;20596;-76
2021/08/11 08:43:20;;;;;;;4.55;3.17;;;;;26.20;101791.00;;;;5051402;28;20204;-75
2021/08/11 08:45:49;;;;;;;6.50;3.28;;;;;26.20;101789.00;;;;5052044;28;20210;-75
2021/08/11 08:48:17;;;;;;;5.45;2.95;;;;;26.20;101789.00;;;;5052387;28;20207;-75
2021/08/11 08:50:45;;;;;;;5.00;2.58;;;;;26.20;101794.00;;;;5052132;28;20210;-75
2021/08/11 08:53:13;;;;;;;3.42;2.28;;;;;26.20;101798.00;;;;5051682;28;20227;-75
2021/08/11 08:55:42;;;;;;;3.90;2.60;;;;;26.20;101795.00;;;;5064498;28;20249;-75
2021/08/11 08:58:11;;;;;;;4.13;3.05;;;;;26.20;101797.00;;;;5072055;28;20653;-75
2021/08/11 09:00:38;;;;;;;4.57;3.38;;;;;26.20;101804.00;;;;5072043;28;20222;-75
2021/08/11 09:03:05;;;;;;;4.88;3.60;;;;;26.20;101809.00;;;;5070863;28;20666;-75
2021/08/11 09:05:33;;;;;;;7.35;3.58;;;;;26.30;101809.00;;;;5072216;28;20202;-75
2021/08/11 09:08:00;;;;;;;3.88;3.28;;;;;26.30;101807.00;;;;5071363;28;20572;-75
2021/08/11 09:10:30;;;;;;;5.43;3.13;;;;;26.30;101804.00;;;;5070846;28;20206;-75
2021/08/11 09:12:59;;;;;;;3.80;3.13;;;;;26.40;101807.00;;;;5070509;28;20684;-75
2021/08/11 09:15:30;;;;;;;3.17;2.80;;;;;26.40;101803.00;;;;5071017;28;21081;-75
2021/08/11 09:17:58;;;;;;;5.75;3.10;;;;;26.50;101800.00;;;;5070822;28;20203;-75
2021/08/11 09:20:27;;;;;;;4.82;3.40;;;;;26.60;101808.00;;;;5071606;28;20318;-75
2021/08/11 09:22:56;;;;;;;3.92;3.35;;;;;26.80;101808.00;;;;5071207;28;20203;-75
2021/08/11 09:25:24;;;;;;;4.78;3.40;;;;;26.90;101802.00;;;;5071034;28;20745;-75
2021/08/11 09:27:51;;;;;;;5.40;3.75;;;;;27.00;101810.00;;;;5070311;28;20297;-75
2021/08/11 09:30:20;;;;;;;7.45;3.50;;;;;27.10;101802.00;;;;5059196;28;20208;-75
2021/08/11 09:33:00;;;;;;;6.78;3.65;;;;;27.10;101802.00;;;;5050891;28;20649;-75
2021/08/11 09:35:29;;;;;;;4.65;2.83;;;;;27.30;101790.00;;;;5051368;28;20234;-75
2021/08/11 09:37:58;;;;;;;3.60;2.53;;;;;27.50;101795.00;;;;5051317;28;20604;-75
2021/08/11 09:40:26;;;;;;;3.45;2.42;;;;;27.50;101798.00;;;;5050906;28;20199;-75
2021/08/11 09:42:58;;;;;;;4.85;2.20;;;;;27.60;101799.00;;;;5050484;28;20196;-76
2021/08/11 09:45:26;;;;;;;3.35;2.13;;;;;27.80;101800.00;;;;5052057;28;20599;-75
2021/08/11 09:48:00;;;;;;;2.08;1.83;;;;;27.90;101808.00;;;;5050754;28;20196;-74
2021/08/11 09:50:45;;;;;;;2.15;1.63;;;;;27.90;101818.00;;;;5051266;28;20199;-75
2021/08/11 09:53:14;;;;;;;4.30;2.25;;;;;28.10;101823.00;;;;5050578;28;20267;-75
2021/08/11 09:56:06;;;;;;;2.60;2.00;;;;;28.10;101819.00;;;;5050699;28;20670;-76
2021/08/11 09:58:37;;;;;;;2.85;1.50;;;;;28.30;101819.00;;;;5035947;28;20211;-76
2021/08/11 10:01:06;;;;;;;4.22;2.45;;;;;28.40;101824.00;;;;5050820;28;20273;-75
2021/08/11 10:03:34;;;;;;;3.10;2.00;;;;;28.50;101820.00;;;;5051555;28;20204;-75
2021/08/11 10:06:02;;;;;;;2.92;2.00;;;;;28.60;101817.00;;;;5050398;28;20199;-76
2021/08/11 10:08:32;;;;;;;2.65;1.80;;;;;28.60;101822.00;;;;5050264;28;20830;-75
2021/08/11 10:10:59;;;;;;;2.60;1.80;;;;;28.70;101826.00;;;;5050685;28;20283;-75
2021/08/11 10:13:28;;;;;;;2.97;2.38;;;;;28.80;101828.00;;;;5050402;28;20243;-76
2021/08/11 10:15:56;;;;;;;3.60;2.00;;;;;28.80;101827.00;;;;5050749;28;20666;-75
2021/08/11 10:18:25;;;;;;;3.15;1.77;;;;;28.80;101822.00;;;;5050922;28;20208;-75
2021/08/11 10:20:57;;;;;;;3.85;1.83;;;;;28.80;101824.00;;;;5064497;28;20268;-75
2021/08/11 10:23:24;;;;;;;3.08;1.88;;;;;28.90;101821.00;;;;5070591;28;20252;-76
2021/08/11 10:25:52;;;;;;;3.65;1.92;;;;;28.90;101830.00;;;;5069731;28;20203;-75
2021/08/11 10:28:22;;;;;;;3.22;2.08;;;;;29.00;101832.00;;;;5066681;28;20207;-76
2021/08/11 10:30:51;;;;;;;3.10;2.33;;;;;29.00;101835.00;;;;5050170;28;20210;-75
2021/08/11 10:33:19;;;;;;;3.20;1.77;;;;;29.10;101840.00;;;;5050069;28;20268;-75
2021/08/11 10:35:48;;;;;;;4.88;2.83;;;;;29.10;101838.00;;;;5050178;28;20235;-75
2021/08/11 10:38:17;;;;;;;2.60;2.10;;;;;29.20;101832.00;;;;5050298;28;20207;-75
2021/08/11 10:40:51;;;;;;;3.60;2.13;;;;;29.20;101840.00;;;;5050145;28;20203;-75
2021/08/11 10:43:19;;;;;;;2.85;2.33;;;;;29.30;101840.00;;;;5049678;28;20206;-76
2021/08/11 10:45:56;;;;;;;4.35;2.50;;;;;29.40;101832.00;;;;5051258;28;20230;-75
2021/08/11 10:48:23;;;;;;;3.22;2.00;;;;;29.50;101832.00;;;;5049699;28;20207;-75
2021/08/11 10:50:52;;;;;;;2.88;1.95;;;;;29.60;101842.00;;;;5049454;28;20215;-75
2021/08/11 10:53:20;;;;;;;3.33;2.10;;;;;29.60;101841.00;;;;5049846;28;20235;-75
2021/08/11 10:55:49;;;;;;;2.85;2.10;;;;;29.60;101840.00;;;;5049617;28;20916;-76
2021/08/11 10:58:38;;;;;;;2.65;1.63;;;;;29.50;101843.00;;;;5049627;28;20207;-75
2021/08/11 11:01:25;;;;;;;2.42;1.55;;;;;29.70;101837.00;;;;5049655;28;20282;-76
2021/08/11 11:03:53;;;;;;;3.17;1.40;;;;;29.70;101842.00;;;;5048750;28;20204;-75
2021/08/11 11:06:21;;;;;;;1.75;1.30;;;;;29.70;101846.00;;;;5050172;28;20203;-75
2021/08/11 11:08:51;;;;;;;2.08;1.65;;;;;29.80;101840.00;;;;5049409;28;20204;-76
2021/08/11 11:11:41;;;;;;;1.73;1.27;;;;;29.70;101842.00;;;;5049816;28;20261;-76
2021/08/11 11:14:53;;;;;;;2.00;1.73;;;;;29.70;101841.00;;;;5049238;28;20443;-76
2021/08/11 11:17:22;;;;;;;1.65;1.17;;;;;29.90;101839.00;;;;5049069;28;20200;-75
2021/08/11 11:20:28;;;;;;;2.50;1.95;;;;;29.80;101835.00;;;;5049797;28;20195;-75
2021/08/11 11:22:58;;;;;;;3.65;1.80;;;;;29.90;101843.00;;;;5046844;28;20203;-76
2021/08/11 11:25:59;;;;;;;2.47;1.98;;;;;29.80;101837.00;;;;5048717;28;20203;-75
2021/08/11 11:29:01;;;;;;;2.72;2.03;;;;;29.80;101844.00;;;;5049617;28;20717;-76
2021/08/11 11:31:32;;;;;;;3.80;1.50;;;;;29.90;101847.00;;;;5049002;28;20724;-75
2021/08/11 11:34:30;;;;;;;3.42;1.85;;;;;29.80;101836.00;;;;5048814;28;20238;-76
2021/08/11 11:37:27;;;;;;;1.70;1.35;;;;;29.90;101844.00;;;;5048814;28;20201;-75
2021/08/11 11:40:13;;;;;;;5.32;2.00;;;;;29.90;101844.00;;;;5055628;28;20855;-75
2021/08/11 11:42:42;;;;;;;2.83;1.50;;;;;30.10;101846.00;;;;5042534;28;20219;-75
2021/08/11 11:45:11;;;;;;;4.15;1.88;;;;;30.20;101840.00;;;;5049236;28;20294;-76
2021/08/11 11:48:15;;;;;;;6.20;1.80;;;;;30.00;101851.00;;;;5049179;28;20203;-75
2021/08/11 11:50:45;;;;;;;2.42;1.30;;;;;30.10;101847.00;;;;5048630;28;20213;-75
2021/08/11 11:53:31;;;;;;;2.63;1.38;;;;;30.00;101851.00;;;;5048588;28;20717;-75
2021/08/11 11:56:08;;;;;;;2.42;1.70;;;;;30.10;101842.00;;;;5048240;28;20208;-75
2021/08/11 11:58:46;;;;;;;2.88;1.60;;;;;30.10;101845.00;;;;5049074;28;20290;-75
2021/08/11 12:01:14;;;;;;;2.50;1.50;;;;;30.10;101841.00;;;;5048868;28;20199;-75
2021/08/11 12:03:45;;;;;;;2.65;1.60;;;;;30.10;101846.00;;;;5048953;28;20210;-75
2021/08/11 12:06:12;;;;;;;2.78;1.38;;;;;30.10;101843.00;;;;5048229;28;20200;-75
2021/08/11 12:08:40;;;;;;;2.45;2.00;;;;;30.10;101848.00;;;;5049469;28;20210;-75
2021/08/11 12:11:09;;;;;;;3.25;2.00;;;;;30.20;101840.00;;;;5048579;28;20199;-75
2021/08/11 12:13:46;;;;;;;2.10;1.52;;;;;30.10;101843.00;;;;5048006;28;20787;-75
2021/08/11 12:16:15;;;;;;;2.20;1.55;;;;;30.10;101840.00;;;;5048464;28;20199;-75
2021/08/11 12:18:45;;;;;;;1.55;1.23;;;;;30.10;101843.00;;;;5049507;28;20199;-73
2021/08/11 12:21:13;;;;;;;3.10;2.10;;;;;30.10;101841.00;;;;5048176;28;20301;-73